Terminal Aerodrome Forecast
Issued by NWS

Home | Current Version | Previous Version | Text Only | Print | Product List | Glossary Off
Versions: 1 2 3 4 5 6 7 8 9 10 11 12 13 14 15 16 17

233
FTUS43 KMPX 082320
TAFRWF
TAF
KRWF 082320Z 0900/0924 33020G32KT P6SM OVC020
      TEMPO 0900/0904 4SM -SN BLSN OVC025
     FM090900 32018G25KT P6SM SCT025
     FM091300 32016G23KT P6SM SKC=

USA.gov is the U.S. government's official web portal to all federal, state and local government web resources and services.